sensor_id;sensor_type;location;lat;lon;timestamp;pressure;altitude;pressure_sealevel;temperature;humidity
18022;BME280;9136;48.822;7.966;2023-04-08T00:00:54;100635.47;;;8.44;100.00
18022;BME280;9136;48.822;7.966;2023-04-08T00:03:42;100632.78;;;8.49;100.00
18022;BME280;9136;48.822;7.966;2023-04-08T00:06:33;100610.97;;;8.50;100.00
18022;BME280;9136;48.822;7.966;2023-04-08T00:09:22;100624.91;;;8.50;100.00
18022;BME280;9136;48.822;7.966;2023-04-08T00:12:12;100621.47;;;8.47;100.00
18022;BME280;9136;48.822;7.966;2023-04-08T00:14:59;100619.78;;;8.44;100.00
18022;BME280;9136;48.822;7.966;2023-04-08T00:17:49;100599.91;;;8.29;100.00
18022;BME280;9136;48.822;7.966;2023-04-08T00:20:39;100618.13;;;8.40;100.00
18022;BME280;9136;48.822;7.966;2023-04-08T00:23:26;100611.13;;;8.41;100.00
18022;BME280;9136;48.822;7.966;2023-04-08T00:26:18;100605.78;;;8.45;100.00
18022;BME280;9136;48.822;7.966;2023-04-08T00:29:07;100622.16;;;8.56;100.00
18022;BME280;9136;48.822;7.966;2023-04-08T00:31:55;100598.03;;;8.39;100.00
18022;BME280;9136;48.822;7.966;2023-04-08T00:34:43;100606.72;;;8.43;100.00
18022;BME280;9136;48.822;7.966;2023-04-08T00:37:33;100620.38;;;8.58;100.00
18022;BME280;9136;48.822;7.966;2023-04-08T00:40:21;100611.66;;;8.58;100.00
18022;BME280;9136;48.822;7.966;2023-04-08T00:43:08;100625.44;;;8.68;100.00
18022;BME280;9136;48.822;7.966;2023-04-08T00:45:58;100616.00;;;8.60;100.00
18022;BME280;9136;48.822;7.966;2023-04-08T00:48:45;100606.38;;;8.61;100.00
18022;BME280;9136;48.822;7.966;2023-04-08T00:51:33;100632.31;;;8.75;100.00
18022;BME280;9136;48.822;7.966;2023-04-08T00:54:22;100625.53;;;8.65;100.00
18022;BME280;9136;48.822;7.966;2023-04-08T00:57:13;100603.88;;;8.55;100.00
18022;BME280;9136;48.822;7.966;2023-04-08T01:00:03;100609.97;;;8.55;100.00
18022;BME280;9136;48.822;7.966;2023-04-08T01:03:01;100601.34;;;8.50;100.00
18022;BME280;9136;48.822;7.966;2023-04-08T01:06:00;100620.38;;;8.58;100.00
18022;BME280;9136;48.822;7.966;2023-04-08T01:08:50;100616.16;;;8.51;100.00
18022;BME280;9136;48.822;7.966;2023-04-08T01:11:42;100627.22;;;8.67;100.00
18022;BME280;9136;48.822;7.966;2023-04-08T01:14:30;100615.91;;;8.65;100.00
18022;BME280;9136;48.822;7.966;2023-04-08T01:17:23;100638.47;;;8.72;100.00
18022;BME280;9136;48.822;7.966;2023-04-08T01:20:14;100611.50;;;8.67;100.00
18022;BME280;9136;48.822;7.966;2023-04-08T01:23:09;100626.34;;;8.67;100.00
18022;BME280;9136;48.822;7.966;2023-04-08T01:26:01;100628.19;;;8.62;100.00
18022;BME280;9136;48.822;7.966;2023-04-08T01:28:49;100607.59;;;8.43;100.00
18022;BME280;9136;48.822;7.966;2023-04-08T01:31:42;100607.63;;;8.42;100.00
18022;BME280;9136;48.822;7.966;2023-04-08T01:34:36;100631.06;;;8.46;100.00
18022;BME280;9136;48.822;7.966;2023-04-08T01:37:25;100633.84;;;8.37;100.00
18022;BME280;9136;48.822;7.966;2023-04-08T01:40:18;100629.28;;;8.50;100.00
18022;BME280;9136;48.822;7.966;2023-04-08T01:43:08;100624.91;;;8.50;100.00
18022;BME280;9136;48.822;7.966;2023-04-08T01:45:57;100615.34;;;8.48;100.00
18022;BME280;9136;48.822;7.966;2023-04-08T01:48:47;100631.78;;;8.56;100.00
18022;BME280;9136;48.822;7.966;2023-04-08T01:51:36;100623.03;;;8.57;100.00
18022;BME280;9136;48.822;7.966;2023-04-08T01:54:24;100628.19;;;8.62;100.00
18022;BME280;9136;48.822;7.966;2023-04-08T01:57:23;100626.50;;;8.57;100.00
18022;BME280;9136;48.822;7.966;2023-04-08T02:00:13;100614.50;;;8.46;100.00
18022;BME280;9136;48.822;7.966;2023-04-08T02:03:04;100622.19;;;8.55;100.00
18022;BME280;9136;48.822;7.966;2023-04-08T02:05:53;100617.09;;;8.47;100.00
18022;BME280;9136;48.822;7.966;2023-04-08T02:08:40;100627.41;;;8.56;100.00
18022;BME280;9136;48.822;7.966;2023-04-08T02:11:28;100629.13;;;8.57;100.00
18022;BME280;9136;48.822;7.966;2023-04-08T02:14:16;100609.28;;;8.46;100.00
18022;BME280;9136;48.822;7.966;2023-04-08T02:17:09;100650.75;;;8.70;100.00
18022;BME280;9136;48.822;7.966;2023-04-08T02:20:04;100610.00;;;8.54;100.00
18022;BME280;9136;48.822;7.966;2023-04-08T02:22:58;100638.63;;;8.65;100.00
18022;BME280;9136;48.822;7.966;2023-04-08T02:25:52;100641.19;;;8.66;100.00
18022;BME280;9136;48.822;7.966;2023-04-08T02:28:42;100638.59;;;8.66;100.00
18022;BME280;9136;48.822;7.966;2023-04-08T02:31:34;100638.63;;;8.65;100.00
18022;BME280;9136;48.822;7.966;2023-04-08T02:34:24;100615.31;;;8.51;100.00
18022;BME280;9136;48.822;7.966;2023-04-08T02:37:14;100642.03;;;8.68;100.00
18022;BME280;9136;48.822;7.966;2023-04-08T02:40:03;100638.53;;;8.68;100.00
18022;BME280;9136;48.822;7.966;2023-04-08T02:42:51;100632.63;;;8.59;100.00
18022;BME280;9136;48.822;7.966;2023-04-08T02:45:41;100616.34;;;8.42;100.00
18022;BME280;9136;48.822;7.966;2023-04-08T02:48:29;100617.16;;;8.44;100.00
18022;BME280;9136;48.822;7.966;2023-04-08T02:51:18;100627.53;;;8.50;100.00
18022;BME280;9136;48.822;7.966;2023-04-08T02:54:06;100641.34;;;8.60;100.00
18022;BME280;9136;48.822;7.966;2023-04-08T02:56:54;100622.34;;;8.47;100.00
18022;BME280;9136;48.822;7.966;2023-04-08T02:59:43;100657.66;;;8.74;100.00
18022;BME280;9136;48.822;7.966;2023-04-08T03:02:33;100627.25;;;8.66;100.00
18022;BME280;9136;48.822;7.966;2023-04-08T03:05:21;100644.50;;;8.76;100.00
18022;BME280;9136;48.822;7.966;2023-04-08T03:08:10;100648.88;;;8.75;100.00
18022;BME280;9136;48.822;7.966;2023-04-08T03:10:58;100617.91;;;8.52;100.00
18022;BME280;9136;48.822;7.966;2023-04-08T03:13:45;100609.44;;;8.37;100.00
18022;BME280;9136;48.822;7.966;2023-04-08T03:16:34;100636.47;;;8.37;100.00
18022;BME280;9136;48.822;7.966;2023-04-08T03:19:22;100651.16;;;8.46;100.00
18022;BME280;9136;48.822;7.966;2023-04-08T03:22:10;100626.84;;;8.41;100.00
18022;BME280;9136;48.822;7.966;2023-04-08T03:24:59;100620.84;;;8.31;100.00
18022;BME280;9136;48.822;7.966;2023-04-08T03:27:47;100642.50;;;8.42;100.00
18022;BME280;9136;48.822;7.966;2023-04-08T03:30:35;100642.47;;;8.44;100.00
18022;BME280;9136;48.822;7.966;2023-04-08T03:33:23;100657.19;;;8.51;100.00
18022;BME280;9136;48.822;7.966;2023-04-08T03:36:10;100656.19;;;8.59;100.00
18022;BME280;9136;48.822;7.966;2023-04-08T03:38:58;100648.47;;;8.50;100.00
18022;BME280;9136;48.822;7.966;2023-04-08T03:41:48;100644.84;;;8.57;100.00
18022;BME280;9136;48.822;7.966;2023-04-08T03:44:36;100629.28;;;8.48;100.00
18022;BME280;9136;48.822;7.966;2023-04-08T03:47:23;100639.75;;;8.48;100.00
18022;BME280;9136;48.822;7.966;2023-04-08T03:50:11;100630.34;;;8.38;100.00
18022;BME280;9136;48.822;7.966;2023-04-08T03:53:01;100649.50;;;8.42;100.00
18022;BME280;9136;48.822;7.966;2023-04-08T03:55:51;100659.00;;;8.47;100.00
18022;BME280;9136;48.822;7.966;2023-04-08T03:58:40;100637.44;;;8.31;100.00
18022;BME280;9136;48.822;7.966;2023-04-08T04:01:34;100649.63;;;8.32;100.00
18022;BME280;9136;48.822;7.966;2023-04-08T04:04:23;100634.94;;;8.24;100.00
18022;BME280;9136;48.822;7.966;2023-04-08T04:07:10;100657.38;;;8.40;100.00
18022;BME280;9136;48.822;7.966;2023-04-08T04:09:59;100651.41;;;8.30;100.00
18022;BME280;9136;48.822;7.966;2023-04-08T04:12:48;100645.19;;;8.38;100.00
18022;BME280;9136;48.822;7.966;2023-04-08T04:15:39;100640.03;;;8.31;100.00
18022;BME280;9136;48.822;7.966;2023-04-08T04:18:27;100645.34;;;8.27;100.00
18022;BME280;9136;48.822;7.966;2023-04-08T04:21:14;100649.66;;;8.31;100.00
18022;BME280;9136;48.822;7.966;2023-04-08T04:24:03;100642.63;;;8.33;100.00
18022;BME280;9136;48.822;7.966;2023-04-08T04:26:51;100648.00;;;8.25;100.00
18022;BME280;9136;48.822;7.966;2023-04-08T04:29:39;100647.00;;;8.32;100.00
18022;BME280;9136;48.822;7.966;2023-04-08T04:32:31;100659.00;;;8.46;100.00
18022;BME280;9136;48.822;7.966;2023-04-08T04:35:19;100647.78;;;8.41;100.00
18022;BME280;9136;48.822;7.966;2023-04-08T04:38:07;100646.00;;;8.43;100.00
18022;BME280;9136;48.822;7.966;2023-04-08T04:40:57;100672.06;;;8.50;100.00
18022;BME280;9136;48.822;7.966;2023-04-08T04:43:47;100628.81;;;8.25;100.00
18022;BME280;9136;48.822;7.966;2023-04-08T04:46:35;100634.00;;;8.26;100.00
18022;BME280;9136;48.822;7.966;2023-04-08T04:49:24;100636.69;;;8.23;100.00
18022;BME280;9136;48.822;7.966;2023-04-08T04:52:12;100639.25;;;8.26;100.00
18022;BME280;9136;48.822;7.966;2023-04-08T04:55:00;100658.34;;;8.35;100.00
18022;BME280;9136;48.822;7.966;2023-04-08T04:57:48;100652.19;;;8.37;100.00
18022;BME280;9136;48.822;7.966;2023-04-08T05:00:36;100650.59;;;8.25;100.00
18022;BME280;9136;48.822;7.966;2023-04-08T05:03:24;100648.75;;;8.32;100.00
18022;BME280;9136;48.822;7.966;2023-04-08T05:06:13;100655.72;;;8.35;100.00
18022;BME280;9136;48.822;7.966;2023-04-08T05:09:02;100668.72;;;8.41;100.00
18022;BME280;9136;48.822;7.966;2023-04-08T05:11:50;100678.19;;;8.48;100.00
18022;BME280;9136;48.822;7.966;2023-04-08T05:14:40;100683.41;;;8.48;100.00
18022;BME280;9136;48.822;7.966;2023-04-08T05:17:28;100693.75;;;8.55;100.00
18022;BME280;9136;48.822;7.966;2023-04-08T05:20:16;100660.94;;;8.36;100.00
18022;BME280;9136;48.822;7.966;2023-04-08T05:23:05;100680.91;;;8.42;100.00
18022;BME280;9136;48.822;7.966;2023-04-08T05:25:54;100678.28;;;8.43;100.00
18022;BME280;9136;48.822;7.966;2023-04-08T05:28:42;100689.47;;;8.51;100.00
18022;BME280;9136;48.822;7.966;2023-04-08T05:31:30;100688.59;;;8.52;100.00
18022;BME280;9136;48.822;7.966;2023-04-08T05:34:17;100679.09;;;8.45;100.00
18022;BME280;9136;48.822;7.966;2023-04-08T05:37:08;100699.72;;;8.65;100.00
18022;BME280;9136;48.822;7.966;2023-04-08T05:39:57;100684.19;;;8.54;100.00
18022;BME280;9136;48.822;7.966;2023-04-08T05:42:45;100704.16;;;8.62;100.00
18022;BME280;9136;48.822;7.966;2023-04-08T05:45:33;100680.72;;;8.52;100.00
18022;BME280;9136;48.822;7.966;2023-04-08T05:48:22;100716.06;;;8.79;100.00
18022;BME280;9136;48.822;7.966;2023-04-08T05:51:12;100715.09;;;8.83;100.00
18022;BME280;9136;48.822;7.966;2023-04-08T05:54:00;100709.91;;;8.82;100.00
18022;BME280;9136;48.822;7.966;2023-04-08T05:56:51;100692.53;;;8.76;100.00
18022;BME280;9136;48.822;7.966;2023-04-08T05:59:40;100721.13;;;8.90;100.00
18022;BME280;9136;48.822;7.966;2023-04-08T06:02:27;100705.50;;;8.84;100.00
18022;BME280;9136;48.822;7.966;2023-04-08T06:05:17;100690.59;;;8.86;100.00
18022;BME280;9136;48.822;7.966;2023-04-08T06:08:05;100721.84;;;8.98;100.00
18022;BME280;9136;48.822;7.966;2023-04-08T06:10:57;100725.22;;;9.03;100.00
18022;BME280;9136;48.822;7.966;2023-04-08T06:13:46;100732.94;;;9.12;100.00
18022;BME280;9136;48.822;7.966;2023-04-08T06:16:35;100709.50;;;9.03;100.00
18022;BME280;9136;48.822;7.966;2023-04-08T06:19:24;100731.03;;;9.21;100.00
18022;BME280;9136;48.822;7.966;2023-04-08T06:22:12;100731.03;;;9.21;100.00
18022;BME280;9136;48.822;7.966;2023-04-08T06:25:07;100732.69;;;9.25;100.00
18022;BME280;9136;48.822;7.966;2023-04-08T06:27:55;100719.88;;;9.09;100.00
18022;BME280;9136;48.822;7.966;2023-04-08T06:30:47;100738.78;;;9.25;100.00
18022;BME280;9136;48.822;7.966;2023-04-08T06:33:35;100722.50;;;9.09;100.00
18022;BME280;9136;48.822;7.966;2023-04-08T06:36:22;100723.34;;;9.11;100.00
18022;BME280;9136;48.822;7.966;2023-04-08T06:39:10;100722.50;;;9.09;100.00
18022;BME280;9136;48.822;7.966;2023-04-08T06:42:06;100756.88;;;9.40;100.00
18022;BME280;9136;48.822;7.966;2023-04-08T06:44:54;100748.75;;;9.53;100.00
18022;BME280;9136;48.822;7.966;2023-04-08T06:47:43;100722.75;;;9.42;100.00
18022;BME280;9136;48.822;7.966;2023-04-08T06:50:35;100725.16;;;9.53;100.00
18022;BME280;9136;48.822;7.966;2023-04-08T06:53:23;100739.66;;;9.70;100.00
18022;BME280;9136;48.822;7.966;2023-04-08T06:56:17;100763.88;;;9.83;100.00
18022;BME280;9136;48.822;7.966;2023-04-08T06:59:06;100746.19;;;9.91;100.00
18022;BME280;9136;48.822;7.966;2023-04-08T07:01:56;100723.56;;;9.87;100.00
18022;BME280;9136;48.822;7.966;2023-04-08T07:04:45;100754.47;;;10.13;100.00
18022;BME280;9136;48.822;7.966;2023-04-08T07:07:33;100736.25;;;10.07;100.00
18022;BME280;9136;48.822;7.966;2023-04-08T07:10:21;100740.47;;;10.13;100.00
18022;BME280;9136;48.822;7.966;2023-04-08T07:13:09;100757.69;;;10.27;100.00
18022;BME280;9136;48.822;7.966;2023-04-08T07:15:57;100780.56;;;10.59;100.00
18022;BME280;9136;48.822;7.966;2023-04-08T07:18:47;100761.28;;;10.60;100.00
18022;BME280;9136;48.822;7.966;2023-04-08T07:21:37;100761.03;;;10.71;100.00
18022;BME280;9136;48.822;7.966;2023-04-08T07:24:26;100772.00;;;10.87;100.00
18022;BME280;9136;48.822;7.966;2023-04-08T07:27:14;100785.75;;;10.98;100.00
18022;BME280;9136;48.822;7.966;2023-04-08T07:30:03;100767.44;;;10.95;100.00
18022;BME280;9136;48.822;7.966;2023-04-08T07:32:51;100761.34;;;10.93;100.00
18022;BME280;9136;48.822;7.966;2023-04-08T07:35:40;100767.97;;;11.08;100.00
18022;BME280;9136;48.822;7.966;2023-04-08T07:38:35;100785.03;;;11.26;100.00
18022;BME280;9136;48.822;7.966;2023-04-08T07:41:26;100787.47;;;11.33;100.00
18022;BME280;9136;48.822;7.966;2023-04-08T07:44:14;100766.81;;;11.20;100.00
18022;BME280;9136;48.822;7.966;2023-04-08T07:47:02;100763.38;;;11.16;100.00
18022;BME280;9136;48.822;7.966;2023-04-08T07:49:50;100785.41;;;11.44;100.00
18022;BME280;9136;48.822;7.966;2023-04-08T07:52:38;100758.88;;;11.52;100.00
18022;BME280;9136;48.822;7.966;2023-04-08T07:55:27;100789.72;;;11.80;100.00
18022;BME280;9136;48.822;7.966;2023-04-08T07:58:19;100774.88;;;11.75;100.00
18022;BME280;9136;48.822;7.966;2023-04-08T08:01:18;100775.97;;;11.68;100.00
18022;BME280;9136;48.822;7.966;2023-04-08T08:04:07;100772.50;;;11.66;100.00
18022;BME280;9136;48.822;7.966;2023-04-08T08:06:55;100781.88;;;11.76;100.00
18022;BME280;9136;48.822;7.966;2023-04-08T08:09:44;100800.66;;;11.97;100.00
18022;BME280;9136;48.822;7.966;2023-04-08T08:12:33;100787.31;;;12.01;100.00
18022;BME280;9136;48.822;7.966;2023-04-08T08:15:24;100798.81;;;12.28;100.00
18022;BME280;9136;48.822;7.966;2023-04-08T08:18:13;100778.72;;;12.24;100.00
18022;BME280;9136;48.822;7.966;2023-04-08T08:21:01;100805.69;;;12.32;100.00
18022;BME280;9136;48.822;7.966;2023-04-08T08:23:51;100805.22;;;12.20;100.00
18022;BME280;9136;48.822;7.966;2023-04-08T08:26:41;100797.06;;;11.99;100.00
18022;BME280;9136;48.822;7.966;2023-04-08T08:36:50;100798.47;;;12.11;100.00
18022;BME280;9136;48.822;7.966;2023-04-08T08:39:46;100792.28;;;11.83;100.00
18022;BME280;9136;48.822;7.966;2023-04-08T08:42:35;100799.31;;;11.50;100.00
18022;BME280;9136;48.822;7.966;2023-04-08T08:45:25;100800.19;;;11.16;100.00
18022;BME280;9136;48.822;7.966;2023-04-08T08:48:12;100822.44;;;11.37;100.00
18022;BME280;9136;48.822;7.966;2023-04-08T08:51:01;100818.38;;;11.58;100.00
18022;BME280;9136;48.822;7.966;2023-04-08T08:53:55;100829.28;;;12.08;100.00
18022;BME280;9136;48.822;7.966;2023-04-08T08:56:46;100817.44;;;12.22;100.00
18022;BME280;9136;48.822;7.966;2023-04-08T08:59:35;100817.47;;;12.21;100.00
18022;BME280;9136;48.822;7.966;2023-04-08T09:02:24;100819.03;;;12.28;100.00
18022;BME280;9136;48.822;7.966;2023-04-08T09:05:13;100808.53;;;12.26;100.00
18022;BME280;9136;48.822;7.966;2023-04-08T09:08:02;100847.03;;;12.60;100.00
18022;BME280;9136;48.822;7.966;2023-04-08T09:10:52;100799.56;;;12.32;100.00
18022;BME280;9136;48.822;7.966;2023-04-08T09:13:40;100813.22;;;11.87;100.00
18022;BME280;9136;48.822;7.966;2023-04-08T09:16:29;100816.75;;;12.16;100.00
18022;BME280;9136;48.822;7.966;2023-04-08T09:19:18;100837.63;;;12.22;100.00
18022;BME280;9136;48.822;7.966;2023-04-08T09:22:07;100830.91;;;12.12;100.00
18022;BME280;9136;48.822;7.966;2023-04-08T09:24:55;100829.03;;;12.17;100.00
18022;BME280;9136;48.822;7.966;2023-04-08T09:27:46;100814.13;;;12.72;100.00
18022;BME280;9136;48.822;7.966;2023-04-08T09:30:34;100831.88;;;13.21;100.00
18022;BME280;9136;48.822;7.966;2023-04-08T09:33:29;100839.78;;;13.48;100.00
18022;BME280;9136;48.822;7.966;2023-04-08T09:36:17;100832.44;;;13.56;100.00
18022;BME280;9136;48.822;7.966;2023-04-08T09:39:05;100834.91;;;13.60;100.00
18022;BME280;9136;48.822;7.966;2023-04-08T09:41:57;100844.44;;;13.13;100.00
18022;BME280;9136;48.822;7.966;2023-04-08T09:44:48;100836.53;;;12.86;100.00
18022;BME280;9136;48.822;7.966;2023-04-08T09:47:43;100849.94;;;12.79;100.00
18022;BME280;9136;48.822;7.966;2023-04-08T09:50:39;100812.19;;;12.50;100.00
18022;BME280;9136;48.822;7.966;2023-04-08T09:53:33;100818.69;;;12.39;100.00
18022;BME280;9136;48.822;7.966;2023-04-08T09:56:23;100814.63;;;12.56;100.00
18022;BME280;9136;48.822;7.966;2023-04-08T09:59:14;100828.94;;;13.02;100.00
18022;BME280;9136;48.822;7.966;2023-04-08T10:02:08;100842.91;;;13.59;100.00
18022;BME280;9136;48.822;7.966;2023-04-08T10:04:59;100827.19;;;13.79;100.00
18022;BME280;9136;48.822;7.966;2023-04-08T10:07:49;100817.53;;;13.55;100.00
18022;BME280;9136;48.822;7.966;2023-04-08T10:10:38;100834.13;;;13.58;100.00
18022;BME280;9136;48.822;7.966;2023-04-08T10:13:27;100808.94;;;12.97;100.00
18022;BME280;9136;48.822;7.966;2023-04-08T10:16:20;100812.53;;;12.68;100.00
18022;BME280;9136;48.822;7.966;2023-04-08T10:19:38;100823.34;;;12.58;100.00
18022;BME280;9136;48.822;7.966;2023-04-08T10:22:45;100824.81;;;13.22;100.00
18022;BME280;9136;48.822;7.966;2023-04-08T10:25:37;100829.28;;;13.94;100.00
18022;BME280;9136;48.822;7.966;2023-04-08T10:28:25;100824.88;;;14.85;100.00
18022;BME280;9136;48.822;7.966;2023-04-08T10:31:20;100809.03;;;15.28;100.00
18022;BME280;9136;48.822;7.966;2023-04-08T10:34:14;100812.41;;;15.31;84.07
18022;BME280;9136;48.822;7.966;2023-04-08T10:37:04;100816.34;;;15.01;82.63
18022;BME280;9136;48.822;7.966;2023-04-08T10:39:54;100825.34;;;14.29;79.24
18022;BME280;9136;48.822;7.966;2023-04-08T10:42:42;100818.53;;;13.51;84.48
18022;BME280;9136;48.822;7.966;2023-04-08T10:45:29;100818.44;;;13.54;92.52
18022;BME280;9136;48.822;7.966;2023-04-08T10:48:19;100815.50;;;13.63;94.22
18022;BME280;9136;48.822;7.966;2023-04-08T10:51:08;100803.50;;;14.24;81.73
18022;BME280;9136;48.822;7.966;2023-04-08T10:54:06;100819.66;;;14.62;70.74
18022;BME280;9136;48.822;7.966;2023-04-08T10:56:54;100829.59;;;14.79;78.48
18022;BME280;9136;48.822;7.966;2023-04-08T10:59:42;100823.66;;;14.94;74.44
18022;BME280;9136;48.822;7.966;2023-04-08T11:02:37;100821.22;;;16.68;71.50
18022;BME280;9136;48.822;7.966;2023-04-08T11:05:26;100802.84;;;17.52;52.57
18022;BME280;9136;48.822;7.966;2023-04-08T11:08:16;100810.09;;;18.16;56.96
18022;BME280;9136;48.822;7.966;2023-04-08T11:11:08;100784.94;;;19.87;49.40
18022;BME280;9136;48.822;7.966;2023-04-08T11:13:58;100800.13;;;22.74;41.13
18022;BME280;9136;48.822;7.966;2023-04-08T11:16:48;100795.72;;;23.21;39.40
18022;BME280;9136;48.822;7.966;2023-04-08T11:19:47;100797.56;;;22.73;42.34
18022;BME280;9136;48.822;7.966;2023-04-08T11:22:42;100781.03;;;20.90;47.35
18022;BME280;9136;48.822;7.966;2023-04-08T11:25:33;100768.72;;;18.73;48.11
18022;BME280;9136;48.822;7.966;2023-04-08T11:28:24;100770.28;;;17.13;52.96
18022;BME280;9136;48.822;7.966;2023-04-08T11:31:19;100775.00;;;15.18;69.23
18022;BME280;9136;48.822;7.966;2023-04-08T11:34:08;100767.53;;;15.08;75.39
18022;BME280;9136;48.822;7.966;2023-04-08T11:36:58;100746.38;;;15.08;90.08
18022;BME280;9136;48.822;7.966;2023-04-08T11:39:47;100755.59;;;15.59;68.76
18022;BME280;9136;48.822;7.966;2023-04-08T11:42:37;100758.38;;;16.14;59.49
18022;BME280;9136;48.822;7.966;2023-04-08T11:45:29;100791.13;;;16.68;52.18
18022;BME280;9136;48.822;7.966;2023-04-08T11:48:24;100776.84;;;17.41;55.87
18022;BME280;9136;48.822;7.966;2023-04-08T11:51:14;100769.47;;;17.46;56.34
18022;BME280;9136;48.822;7.966;2023-04-08T11:54:05;100789.50;;;16.65;53.28
18022;BME280;9136;48.822;7.966;2023-04-08T11:56:53;100762.53;;;16.00;56.86
18022;BME280;9136;48.822;7.966;2023-04-08T11:59:45;100762.06;;;15.52;56.66
18022;BME280;9136;48.822;7.966;2023-04-08T12:02:35;100799.34;;;15.06;50.02
18022;BME280;9136;48.822;7.966;2023-04-08T12:05:23;100770.94;;;14.24;53.77
18022;BME280;9136;48.822;7.966;2023-04-08T12:08:15;100751.25;;;13.86;64.55
18022;BME280;9136;48.822;7.966;2023-04-08T12:11:03;100792.66;;;13.62;61.44
18022;BME280;9136;48.822;7.966;2023-04-08T12:13:51;100760.84;;;13.40;70.00
18022;BME280;9136;48.822;7.966;2023-04-08T12:16:39;100766.31;;;13.09;74.28
18022;BME280;9136;48.822;7.966;2023-04-08T12:19:31;100768.66;;;12.92;76.38
18022;BME280;9136;48.822;7.966;2023-04-08T12:22:18;100760.84;;;12.62;72.61
18022;BME280;9136;48.822;7.966;2023-04-08T12:25:08;100759.66;;;12.44;70.46
18022;BME280;9136;48.822;7.966;2023-04-08T12:27:58;100799.63;;;12.58;62.17
18022;BME280;9136;48.822;7.966;2023-04-08T12:30:46;100796.03;;;12.61;58.10
18022;BME280;9136;48.822;7.966;2023-04-08T12:33:34;100782.44;;;12.47;65.06
18022;BME280;9136;48.822;7.966;2023-04-08T12:36:24;100788.06;;;12.36;77.74
18022;BME280;9136;48.822;7.966;2023-04-08T12:39:14;100764.03;;;12.17;77.58
18022;BME280;9136;48.822;7.966;2023-04-08T12:42:04;100759.38;;;12.25;68.26
18022;BME280;9136;48.822;7.966;2023-04-08T12:44:53;100781.84;;;12.65;66.25
18022;BME280;9136;48.822;7.966;2023-04-08T12:47:41;100764.72;;;12.78;66.51
18022;BME280;9136;48.822;7.966;2023-04-08T12:50:29;100785.44;;;13.15;69.31
18022;BME280;9136;48.822;7.966;2023-04-08T12:53:21;100753.78;;;13.15;74.14
18022;BME280;9136;48.822;7.966;2023-04-08T12:56:08;100770.50;;;13.41;71.89
18022;BME280;9136;48.822;7.966;2023-04-08T12:58:56;100758.19;;;13.41;68.68
18022;BME280;9136;48.822;7.966;2023-04-08T13:01:47;100771.00;;;13.52;66.31
18022;BME280;9136;48.822;7.966;2023-04-08T13:04:36;100764.53;;;13.84;66.17
18022;BME280;9136;48.822;7.966;2023-04-08T13:07:26;100768.25;;;13.79;61.82
18022;BME280;9136;48.822;7.966;2023-04-08T13:10:18;100788.00;;;14.15;63.35
18022;BME280;9136;48.822;7.966;2023-04-08T13:13:06;100787.63;;;14.24;66.13
18022;BME280;9136;48.822;7.966;2023-04-08T13:15:54;100767.22;;;13.83;63.95
18022;BME280;9136;48.822;7.966;2023-04-08T13:18:43;100770.72;;;13.83;66.11
18022;BME280;9136;48.822;7.966;2023-04-08T13:21:33;100771.31;;;13.91;67.46
18022;BME280;9136;48.822;7.966;2023-04-08T13:24:20;100758.72;;;13.74;76.37
18022;BME280;9136;48.822;7.966;2023-04-08T13:27:10;100768.16;;;13.82;70.96
18022;BME280;9136;48.822;7.966;2023-04-08T13:29:59;100756.53;;;13.86;74.59
18022;BME280;9136;48.822;7.966;2023-04-08T13:32:46;100778.31;;;14.38;63.87
18022;BME280;9136;48.822;7.966;2023-04-08T13:35:35;100782.47;;;15.09;67.33
18022;BME280;9136;48.822;7.966;2023-04-08T13:38:23;100795.91;;;15.86;60.23
18022;BME280;9136;48.822;7.966;2023-04-08T13:41:10;100760.69;;;16.02;51.74
18022;BME280;9136;48.822;7.966;2023-04-08T13:44:00;100767.69;;;15.85;52.61
18022;BME280;9136;48.822;7.966;2023-04-08T13:46:48;100765.19;;;15.61;54.24
18022;BME280;9136;48.822;7.966;2023-04-08T13:49:36;100774.34;;;15.54;55.30
18022;BME280;9136;48.822;7.966;2023-04-08T13:52:24;100775.53;;;15.06;58.23
18022;BME280;9136;48.822;7.966;2023-04-08T13:55:16;100777.72;;;14.97;61.38
18022;BME280;9136;48.822;7.966;2023-04-08T13:58:05;100797.25;;;14.93;58.73
18022;BME280;9136;48.822;7.966;2023-04-08T14:00:54;100790.34;;;14.68;66.12
18022;BME280;9136;48.822;7.966;2023-04-08T14:03:56;100756.03;;;13.99;68.01
18022;BME280;9136;48.822;7.966;2023-04-08T14:06:45;100787.25;;;13.88;71.37
18022;BME280;9136;48.822;7.966;2023-04-08T14:09:33;100785.41;;;13.67;71.36
18022;BME280;9136;48.822;7.966;2023-04-08T14:12:25;100776.66;;;13.41;71.43
18022;BME280;9136;48.822;7.966;2023-04-08T14:15:14;100779.16;;;13.20;70.05
18022;BME280;9136;48.822;7.966;2023-04-08T14:18:05;100796.72;;;13.21;71.46
18022;BME280;9136;48.822;7.966;2023-04-08T14:20:53;100762.31;;;12.71;76.62
18022;BME280;9136;48.822;7.966;2023-04-08T14:23:42;100779.06;;;12.70;73.31
18022;BME280;9136;48.822;7.966;2023-04-08T14:26:34;100758.97;;;12.39;78.49
18022;BME280;9136;48.822;7.966;2023-04-08T14:29:24;100777.34;;;12.41;76.55
18022;BME280;9136;48.822;7.966;2023-04-08T14:32:16;100778.22;;;12.41;85.67
18022;BME280;9136;48.822;7.966;2023-04-08T14:35:05;100752.94;;;12.08;81.66
18022;BME280;9136;48.822;7.966;2023-04-08T14:37:57;100763.19;;;12.15;87.13
18022;BME280;9136;48.822;7.966;2023-04-08T14:40:45;100788.00;;;12.64;92.58
18022;BME280;9136;48.822;7.966;2023-04-08T14:43:33;100787.22;;;13.15;73.64
18022;BME280;9136;48.822;7.966;2023-04-08T14:46:27;100750.28;;;13.65;78.08
18022;BME280;9136;48.822;7.966;2023-04-08T14:49:17;100755.50;;;14.13;73.24
18022;BME280;9136;48.822;7.966;2023-04-08T14:52:06;100779.88;;;14.65;65.76
18022;BME280;9136;48.822;7.966;2023-04-08T14:54:55;100765.91;;;14.83;70.88
18022;BME280;9136;48.822;7.966;2023-04-08T14:57:44;100773.84;;;14.83;73.16
18022;BME280;9136;48.822;7.966;2023-04-08T15:00:40;100763.66;;;14.52;73.42
18022;BME280;9136;48.822;7.966;2023-04-08T15:03:31;100764.00;;;14.43;63.02